CDT,Max TemperatureF,Mean TemperatureF,Min TemperatureF,Max Dew PointF,MeanDew PointF,Min DewpointF,Max Humidity, Mean Humidity, Min Humidity, Max Sea Level PressureIn, Mean Sea Level PressureIn, Min Sea Level PressureIn, Max VisibilityMiles, Mean VisibilityMiles, Min VisibilityMiles, Max Wind SpeedMPH, Mean Wind SpeedMPH, Max Gust SpeedMPH,PrecipitationIn, CloudCover, Events, WindDirDegrees
2013-8-1,84,70,57,70,61,54,100,79,48,30.09,30.01,29.91,10,9,1,18,5,21,0.74,2,Rain,214
2013-8-2,73,68,60,66,62,57,100,85,57,30.06,29.97,29.91,10,10,4,9,5,,0.02,2,Rain,330
2013-8-3,75,64,53,59,56,52,100,75,44,30.21,30.15,30.06,10,10,9,9,4,,0.00,0,,353
2013-8-4,78,66,55,61,57,54,100,71,47,30.22,30.15,30.02,10,10,10,13,4,17,0.00,1,,135
2013-8-5,82,73,64,72,66,59,100,83,58,30.01,29.90,29.84,10,9,3,14,7,17,0.00,6,,230
2013-8-6,84,72,59,70,67,59,100,83,55,29.88,29.83,29.78,10,8,0,17,4,21,0.00,1,Fog,232
2013-8-7,75,68,59,70,61,55,100,80,53,30.05,29.95,29.83,10,10,4,12,7,17,0.00,3,,1
2013-8-8,75,65,55,64,58,54,94,79,57,30.09,30.03,29.99,10,10,4,8,3,,0.00,3,,156
2013-8-9,77,70,62,66,60,54,100,75,47,30.16,30.08,30.01,10,9,5,12,5,18,0.00,3,,351
2013-8-10,78,66,55,66,60,55,100,80,51,30.21,30.16,30.09,10,9,5,10,3,20,0.01,3,Rain,234
2013-8-11,75,70,64,70,66,63,100,93,69,30.12,30.06,30.01,10,7,2,22,6,31,0.58,6,Rain,108
2013-8-12,77,67,57,64,59,55,100,75,47,30.09,30.06,30.03,10,8,0,13,5,17,0.00,0,Fog,342
2013-8-13,73,64,55,61,55,50,100,76,44,30.20,30.15,30.08,10,10,8,12,5,22,0.00,1,,22
2013-8-14,73,62,50,57,52,45,100,71,38,30.23,30.19,30.13,10,10,9,12,3,14,0.00,0,,168
2013-8-15,73,63,53,59,55,52,100,78,50,30.17,30.13,30.10,10,10,8,13,5,17,0.00,2,,173
2013-8-16,75,62,50,59,55,50,100,75,44,30.22,30.19,30.15,10,8,0,14,3,15,0.00,1,Fog,155
2013-8-17,78,66,53,57,55,52,94,69,42,30.23,30.18,30.14,10,10,7,15,7,20,0.00,0,,166
2013-8-18,78,66,55,61,57,54,100,73,44,30.17,30.12,30.06,10,10,4,16,7,24,0.00,1,,176
2013-8-19,84,72,59,68,64,57,100,77,55,30.07,30.01,29.94,10,9,5,18,10,23,0.00,2,,187
2013-8-20,87,78,69,73,69,64,89,76,58,29.96,29.93,29.89,10,9,8,16,11,22,0.00,3,,192
2013-8-21,86,78,69,75,71,68,100,86,62,30.00,29.95,29.91,10,8,2,15,9,23,0.20,1,Rain,207
2013-8-22,80,74,68,72,69,66,100,87,70,30.12,30.07,30.00,10,8,0,21,5,29,1.00,3,Rain,40
2013-8-23,82,74,66,72,70,66,100,88,70,30.13,30.09,30.04,10,8,2,14,6,21,0.00,2,,134
2013-8-24,86,78,69,75,71,68,100,85,66,30.13,30.06,30.01,10,9,1,21,13,26,0.12,1,Rain,166
2013-8-25,91,81,71,77,73,70,94,79,55,30.11,30.06,30.02,10,9,4,20,13,28,0.00,0,,193
2013-8-26,91,81,71,77,74,70,100,80,59,30.06,30.00,29.91,10,9,5,18,11,23,0.00,0,,195
2013-8-27,89,82,75,77,73,68,100,77,62,29.93,29.89,29.86,10,10,7,15,11,22,0.00,0,,226
2013-8-28,89,80,71,81,77,72,100,86,66,30.01,29.97,29.92,10,6,0,8,3,13,0.00,0,,162
2013-8-29,,,,,,,,,,,,,,,,,,,,,,
2013-8-30,,,,,,,,,,,,,,,,,,,,,,
2013-8-31,,,,,,,,,,,,,,,,,,,,,,